sensor_id;sensor_type;location;lat;lon;timestamp;temperature;humidity
7936;DHT22;4013;49.744;8.118;2022-08-19T00:01:20;21.40;99.90
7936;DHT22;4013;49.744;8.118;2022-08-19T00:03:48;21.50;99.90
7936;DHT22;4013;49.744;8.118;2022-08-19T00:06:15;21.40;99.90
7936;DHT22;4013;49.744;8.118;2022-08-19T00:08:42;21.50;99.90
7936;DHT22;4013;49.744;8.118;2022-08-19T00:11:11;21.50;99.90
7936;DHT22;4013;49.744;8.118;2022-08-19T00:13:38;21.40;99.90
7936;DHT22;4013;49.744;8.118;2022-08-19T00:16:06;21.40;99.90
7936;DHT22;4013;49.744;8.118;2022-08-19T00:18:34;21.40;99.90
7936;DHT22;4013;49.744;8.118;2022-08-19T00:21:01;21.40;99.90
7936;DHT22;4013;49.744;8.118;2022-08-19T00:23:28;21.40;99.90
7936;DHT22;4013;49.744;8.118;2022-08-19T00:25:55;21.40;99.90
7936;DHT22;4013;49.744;8.118;2022-08-19T00:28:22;21.40;99.90
7936;DHT22;4013;49.744;8.118;2022-08-19T00:30:49;21.30;99.90
7936;DHT22;4013;49.744;8.118;2022-08-19T00:33:18;21.30;99.90
7936;DHT22;4013;49.744;8.118;2022-08-19T00:35:45;21.30;99.90
7936;DHT22;4013;49.744;8.118;2022-08-19T00:38:12;21.20;99.90
7936;DHT22;4013;49.744;8.118;2022-08-19T00:40:40;21.30;99.90
7936;DHT22;4013;49.744;8.118;2022-08-19T00:43:10;21.30;99.90
7936;DHT22;4013;49.744;8.118;2022-08-19T00:45:39;21.30;99.90
7936;DHT22;4013;49.744;8.118;2022-08-19T00:48:07;21.30;99.90
7936;DHT22;4013;49.744;8.118;2022-08-19T00:50:36;21.30;99.90
7936;DHT22;4013;49.744;8.118;2022-08-19T00:53:06;21.30;99.90
7936;DHT22;4013;49.744;8.118;2022-08-19T00:55:33;21.30;99.90
7936;DHT22;4013;49.744;8.118;2022-08-19T00:58:05;21.30;99.90
7936;DHT22;4013;49.744;8.118;2022-08-19T01:00:33;21.30;99.90
7936;DHT22;4013;49.744;8.118;2022-08-19T01:03:02;21.30;99.90
7936;DHT22;4013;49.744;8.118;2022-08-19T01:05:30;21.40;99.90
7936;DHT22;4013;49.744;8.118;2022-08-19T01:08:00;21.40;99.90
7936;DHT22;4013;49.744;8.118;2022-08-19T01:10:30;21.30;99.90
7936;DHT22;4013;49.744;8.118;2022-08-19T01:12:58;21.30;99.90
7936;DHT22;4013;49.744;8.118;2022-08-19T01:15:31;21.40;99.90
7936;DHT22;4013;49.744;8.118;2022-08-19T01:18:00;21.30;99.90
7936;DHT22;4013;49.744;8.118;2022-08-19T01:20:27;21.40;99.90
7936;DHT22;4013;49.744;8.118;2022-08-19T01:22:57;21.40;99.90
7936;DHT22;4013;49.744;8.118;2022-08-19T01:25:29;21.40;99.90
7936;DHT22;4013;49.744;8.118;2022-08-19T01:27:57;21.30;99.90
7936;DHT22;4013;49.744;8.118;2022-08-19T01:30:27;21.30;99.90
7936;DHT22;4013;49.744;8.118;2022-08-19T01:32:56;21.30;99.90
7936;DHT22;4013;49.744;8.118;2022-08-19T01:35:25;21.20;99.90
7936;DHT22;4013;49.744;8.118;2022-08-19T01:37:57;21.30;99.90
7936;DHT22;4013;49.744;8.118;2022-08-19T01:40:27;21.30;99.90
7936;DHT22;4013;49.744;8.118;2022-08-19T01:42:56;21.30;99.90
7936;DHT22;4013;49.744;8.118;2022-08-19T01:45:25;21.30;99.90
7936;DHT22;4013;49.744;8.118;2022-08-19T01:47:53;21.30;99.90
7936;DHT22;4013;49.744;8.118;2022-08-19T01:50:21;21.30;99.90
7936;DHT22;4013;49.744;8.118;2022-08-19T01:52:48;21.30;99.90
7936;DHT22;4013;49.744;8.118;2022-08-19T01:55:20;21.20;99.90
7936;DHT22;4013;49.744;8.118;2022-08-19T01:57:58;21.10;99.90
7936;DHT22;4013;49.744;8.118;2022-08-19T02:00:28;21.10;99.90
7936;DHT22;4013;49.744;8.118;2022-08-19T02:02:56;21.00;99.90
7936;DHT22;4013;49.744;8.118;2022-08-19T02:05:23;21.10;99.90
7936;DHT22;4013;49.744;8.118;2022-08-19T02:07:50;21.10;99.90
7936;DHT22;4013;49.744;8.118;2022-08-19T02:10:21;21.10;99.90
7936;DHT22;4013;49.744;8.118;2022-08-19T02:12:48;21.00;99.90
7936;DHT22;4013;49.744;8.118;2022-08-19T02:15:16;21.00;99.90
7936;DHT22;4013;49.744;8.118;2022-08-19T02:17:44;21.00;99.90
7936;DHT22;4013;49.744;8.118;2022-08-19T02:20:12;21.00;99.90
7936;DHT22;4013;49.744;8.118;2022-08-19T02:22:39;21.00;99.90
7936;DHT22;4013;49.744;8.118;2022-08-19T02:25:09;21.00;99.90
7936;DHT22;4013;49.744;8.118;2022-08-19T02:27:38;21.00;99.90
7936;DHT22;4013;49.744;8.118;2022-08-19T02:30:07;21.00;99.90
7936;DHT22;4013;49.744;8.118;2022-08-19T02:32:34;21.00;99.90
7936;DHT22;4013;49.744;8.118;2022-08-19T02:35:01;21.00;99.90
7936;DHT22;4013;49.744;8.118;2022-08-19T02:37:28;21.00;99.90
7936;DHT22;4013;49.744;8.118;2022-08-19T02:40:13;21.00;99.90
7936;DHT22;4013;49.744;8.118;2022-08-19T02:42:41;21.00;99.90
7936;DHT22;4013;49.744;8.118;2022-08-19T02:45:09;20.90;99.90
7936;DHT22;4013;49.744;8.118;2022-08-19T02:47:36;20.90;99.90
7936;DHT22;4013;49.744;8.118;2022-08-19T02:50:04;20.90;99.90
7936;DHT22;4013;49.744;8.118;2022-08-19T02:52:32;21.00;99.90
7936;DHT22;4013;49.744;8.118;2022-08-19T02:54:59;20.90;99.90
7936;DHT22;4013;49.744;8.118;2022-08-19T02:57:27;20.90;99.90
7936;DHT22;4013;49.744;8.118;2022-08-19T02:59:55;20.90;99.90
7936;DHT22;4013;49.744;8.118;2022-08-19T03:02:22;20.90;99.90
7936;DHT22;4013;49.744;8.118;2022-08-19T03:04:48;20.90;99.90
7936;DHT22;4013;49.744;8.118;2022-08-19T03:07:17;21.00;99.90
7936;DHT22;4013;49.744;8.118;2022-08-19T03:09:44;21.00;99.90
7936;DHT22;4013;49.744;8.118;2022-08-19T03:12:11;21.00;99.90
7936;DHT22;4013;49.744;8.118;2022-08-19T03:14:38;21.00;99.90
7936;DHT22;4013;49.744;8.118;2022-08-19T03:17:07;20.90;99.90
7936;DHT22;4013;49.744;8.118;2022-08-19T03:19:34;20.90;99.90
7936;DHT22;4013;49.744;8.118;2022-08-19T03:22:01;20.90;99.90
7936;DHT22;4013;49.744;8.118;2022-08-19T03:24:30;20.90;99.90
7936;DHT22;4013;49.744;8.118;2022-08-19T03:26:57;20.90;99.90
7936;DHT22;4013;49.744;8.118;2022-08-19T03:29:25;20.90;99.90
7936;DHT22;4013;49.744;8.118;2022-08-19T03:31:53;20.90;99.90
7936;DHT22;4013;49.744;8.118;2022-08-19T03:34:24;20.90;99.90
7936;DHT22;4013;49.744;8.118;2022-08-19T03:36:52;20.90;99.90
7936;DHT22;4013;49.744;8.118;2022-08-19T03:39:20;20.90;99.90
7936;DHT22;4013;49.744;8.118;2022-08-19T03:41:48;20.90;99.90
7936;DHT22;4013;49.744;8.118;2022-08-19T03:44:17;20.80;99.90
7936;DHT22;4013;49.744;8.118;2022-08-19T03:46:46;20.70;99.90
7936;DHT22;4013;49.744;8.118;2022-08-19T03:49:13;20.70;99.90
7936;DHT22;4013;49.744;8.118;2022-08-19T03:51:42;20.70;99.90
7936;DHT22;4013;49.744;8.118;2022-08-19T03:54:12;20.70;99.90
7936;DHT22;4013;49.744;8.118;2022-08-19T03:56:40;20.70;99.90
7936;DHT22;4013;49.744;8.118;2022-08-19T03:59:10;20.70;99.90
7936;DHT22;4013;49.744;8.118;2022-08-19T04:01:37;20.70;99.90
7936;DHT22;4013;49.744;8.118;2022-08-19T04:04:04;20.70;99.90
7936;DHT22;4013;49.744;8.118;2022-08-19T04:06:33;20.70;99.90
7936;DHT22;4013;49.744;8.118;2022-08-19T04:09:04;20.70;99.90
7936;DHT22;4013;49.744;8.118;2022-08-19T04:11:35;20.70;99.90
7936;DHT22;4013;49.744;8.118;2022-08-19T04:14:07;20.80;99.90
7936;DHT22;4013;49.744;8.118;2022-08-19T04:16:34;20.70;99.90
7936;DHT22;4013;49.744;8.118;2022-08-19T04:19:03;20.70;99.90
7936;DHT22;4013;49.744;8.118;2022-08-19T04:21:31;20.80;99.90
7936;DHT22;4013;49.744;8.118;2022-08-19T04:23:58;20.70;99.90
7936;DHT22;4013;49.744;8.118;2022-08-19T04:26:29;20.70;99.90
7936;DHT22;4013;49.744;8.118;2022-08-19T04:28:57;20.70;99.90
7936;DHT22;4013;49.744;8.118;2022-08-19T04:31:29;20.60;99.90
7936;DHT22;4013;49.744;8.118;2022-08-19T04:33:59;20.60;99.90
7936;DHT22;4013;49.744;8.118;2022-08-19T04:36:29;20.60;99.90
7936;DHT22;4013;49.744;8.118;2022-08-19T04:38:59;20.50;99.90
7936;DHT22;4013;49.744;8.118;2022-08-19T04:41:27;20.40;99.90
7936;DHT22;4013;49.744;8.118;2022-08-19T04:44:13;20.40;99.90
7936;DHT22;4013;49.744;8.118;2022-08-19T04:46:43;20.30;99.90
7936;DHT22;4013;49.744;8.118;2022-08-19T04:49:11;20.30;99.90
7936;DHT22;4013;49.744;8.118;2022-08-19T04:51:40;20.30;99.90
7936;DHT22;4013;49.744;8.118;2022-08-19T04:54:07;20.20;99.90
7936;DHT22;4013;49.744;8.118;2022-08-19T04:56:39;20.20;99.90
7936;DHT22;4013;49.744;8.118;2022-08-19T04:59:15;20.30;99.90
7936;DHT22;4013;49.744;8.118;2022-08-19T05:01:43;20.30;99.90
7936;DHT22;4013;49.744;8.118;2022-08-19T05:04:17;20.30;99.90
7936;DHT22;4013;49.744;8.118;2022-08-19T05:06:45;20.20;99.90
7936;DHT22;4013;49.744;8.118;2022-08-19T05:09:13;20.20;99.90
7936;DHT22;4013;49.744;8.118;2022-08-19T05:11:42;20.20;99.90
7936;DHT22;4013;49.744;8.118;2022-08-19T05:14:10;20.20;99.90
7936;DHT22;4013;49.744;8.118;2022-08-19T05:16:39;20.20;99.90
7936;DHT22;4013;49.744;8.118;2022-08-19T05:19:06;20.20;99.90
7936;DHT22;4013;49.744;8.118;2022-08-19T05:21:51;20.30;99.90
7936;DHT22;4013;49.744;8.118;2022-08-19T05:24:36;20.20;99.90
7936;DHT22;4013;49.744;8.118;2022-08-19T05:27:05;20.30;99.90
7936;DHT22;4013;49.744;8.118;2022-08-19T05:29:33;20.30;99.90
7936;DHT22;4013;49.744;8.118;2022-08-19T05:32:02;20.30;99.90
7936;DHT22;4013;49.744;8.118;2022-08-19T05:34:30;20.20;99.90
7936;DHT22;4013;49.744;8.118;2022-08-19T05:37:00;20.30;99.90
7936;DHT22;4013;49.744;8.118;2022-08-19T05:39:29;20.30;99.90
7936;DHT22;4013;49.744;8.118;2022-08-19T05:41:59;20.20;99.90
7936;DHT22;4013;49.744;8.118;2022-08-19T05:44:29;20.20;99.90
7936;DHT22;4013;49.744;8.118;2022-08-19T05:46:57;20.30;99.90
7936;DHT22;4013;49.744;8.118;2022-08-19T05:49:25;20.30;99.90
7936;DHT22;4013;49.744;8.118;2022-08-19T05:51:53;20.30;99.90
7936;DHT22;4013;49.744;8.118;2022-08-19T05:54:21;20.30;99.90
7936;DHT22;4013;49.744;8.118;2022-08-19T05:56:49;20.40;99.90
7936;DHT22;4013;49.744;8.118;2022-08-19T05:59:18;20.50;99.90
7936;DHT22;4013;49.744;8.118;2022-08-19T06:01:50;20.50;99.90
7936;DHT22;4013;49.744;8.118;2022-08-19T06:04:18;20.70;99.90
7936;DHT22;4013;49.744;8.118;2022-08-19T06:06:45;20.70;99.90
7936;DHT22;4013;49.744;8.118;2022-08-19T06:09:13;20.70;99.90
7936;DHT22;4013;49.744;8.118;2022-08-19T06:11:42;20.70;99.90
7936;DHT22;4013;49.744;8.118;2022-08-19T06:14:11;20.80;99.90
7936;DHT22;4013;49.744;8.118;2022-08-19T06:16:40;20.80;99.90
7936;DHT22;4013;49.744;8.118;2022-08-19T06:19:10;20.70;99.90
7936;DHT22;4013;49.744;8.118;2022-08-19T06:21:40;20.80;99.90
7936;DHT22;4013;49.744;8.118;2022-08-19T06:24:10;20.90;99.90
7936;DHT22;4013;49.744;8.118;2022-08-19T06:26:40;20.90;99.90
7936;DHT22;4013;49.744;8.118;2022-08-19T06:29:10;20.90;99.90
7936;DHT22;4013;49.744;8.118;2022-08-19T06:31:41;21.00;99.90
7936;DHT22;4013;49.744;8.118;2022-08-19T06:34:09;20.90;99.90
7936;DHT22;4013;49.744;8.118;2022-08-19T06:36:39;21.00;99.90
7936;DHT22;4013;49.744;8.118;2022-08-19T06:39:09;21.10;99.90
7936;DHT22;4013;49.744;8.118;2022-08-19T06:41:39;21.10;99.90
7936;DHT22;4013;49.744;8.118;2022-08-19T06:44:07;21.10;99.90
7936;DHT22;4013;49.744;8.118;2022-08-19T06:46:36;21.20;99.90
7936;DHT22;4013;49.744;8.118;2022-08-19T06:49:03;21.20;99.90
7936;DHT22;4013;49.744;8.118;2022-08-19T06:51:32;21.20;99.90
7936;DHT22;4013;49.744;8.118;2022-08-19T06:53:59;21.20;99.90
7936;DHT22;4013;49.744;8.118;2022-08-19T06:56:31;21.20;99.90
7936;DHT22;4013;49.744;8.118;2022-08-19T06:59:00;21.20;99.90
7936;DHT22;4013;49.744;8.118;2022-08-19T07:01:27;21.30;99.90
7936;DHT22;4013;49.744;8.118;2022-08-19T07:03:54;21.40;99.90
7936;DHT22;4013;49.744;8.118;2022-08-19T07:06:21;21.40;99.90
7936;DHT22;4013;49.744;8.118;2022-08-19T07:08:50;21.60;99.90
7936;DHT22;4013;49.744;8.118;2022-08-19T07:11:17;21.70;99.90
7936;DHT22;4013;49.744;8.118;2022-08-19T07:13:45;21.70;99.90
7936;DHT22;4013;49.744;8.118;2022-08-19T07:16:14;21.80;99.90
7936;DHT22;4013;49.744;8.118;2022-08-19T07:18:41;21.90;99.90
7936;DHT22;4013;49.744;8.118;2022-08-19T07:21:13;22.00;99.90
7936;DHT22;4013;49.744;8.118;2022-08-19T07:23:40;22.10;99.90
7936;DHT22;4013;49.744;8.118;2022-08-19T07:26:10;22.30;99.90
7936;DHT22;4013;49.744;8.118;2022-08-19T07:28:38;22.40;99.90
7936;DHT22;4013;49.744;8.118;2022-08-19T07:31:06;22.50;99.90
7936;DHT22;4013;49.744;8.118;2022-08-19T07:33:33;22.60;99.90
7936;DHT22;4013;49.744;8.118;2022-08-19T07:36:03;22.70;99.90
7936;DHT22;4013;49.744;8.118;2022-08-19T07:38:31;22.80;99.90
7936;DHT22;4013;49.744;8.118;2022-08-19T07:40:58;22.80;99.90
7936;DHT22;4013;49.744;8.118;2022-08-19T07:43:28;22.90;99.90
7936;DHT22;4013;49.744;8.118;2022-08-19T07:45:55;23.10;99.90
7936;DHT22;4013;49.744;8.118;2022-08-19T07:48:23;23.20;99.90
7936;DHT22;4013;49.744;8.118;2022-08-19T07:50:51;23.20;99.90
7936;DHT22;4013;49.744;8.118;2022-08-19T07:53:18;23.30;99.90
7936;DHT22;4013;49.744;8.118;2022-08-19T07:55:45;23.30;99.90
7936;DHT22;4013;49.744;8.118;2022-08-19T07:58:14;23.40;99.90
7936;DHT22;4013;49.744;8.118;2022-08-19T08:00:44;23.40;99.90
7936;DHT22;4013;49.744;8.118;2022-08-19T08:03:13;23.40;99.90
7936;DHT22;4013;49.744;8.118;2022-08-19T08:05:40;23.40;99.90
7936;DHT22;4013;49.744;8.118;2022-08-19T08:08:25;23.30;99.90
7936;DHT22;4013;49.744;8.118;2022-08-19T08:11:10;23.10;99.90
7936;DHT22;4013;49.744;8.118;2022-08-19T08:13:37;23.10;99.90
7936;DHT22;4013;49.744;8.118;2022-08-19T08:16:07;23.10;99.90
7936;DHT22;4013;49.744;8.118;2022-08-19T08:18:35;23.10;99.90
7936;DHT22;4013;49.744;8.118;2022-08-19T08:21:07;23.20;99.90
7936;DHT22;4013;49.744;8.118;2022-08-19T08:23:35;23.20;99.90
7936;DHT22;4013;49.744;8.118;2022-08-19T08:26:02;23.20;99.90
7936;DHT22;4013;49.744;8.118;2022-08-19T08:28:30;23.30;99.90
7936;DHT22;4013;49.744;8.118;2022-08-19T08:30:57;23.30;99.90
7936;DHT22;4013;49.744;8.118;2022-08-19T08:33:27;23.50;99.90
7936;DHT22;4013;49.744;8.118;2022-08-19T08:35:55;23.50;99.90
7936;DHT22;4013;49.744;8.118;2022-08-19T08:38:22;23.60;99.90
7936;DHT22;4013;49.744;8.118;2022-08-19T08:40:53;23.60;99.90
7936;DHT22;4013;49.744;8.118;2022-08-19T08:43:33;23.70;99.90
7936;DHT22;4013;49.744;8.118;2022-08-19T08:46:04;23.50;99.90
7936;DHT22;4013;49.744;8.118;2022-08-19T08:48:37;23.70;99.90
7936;DHT22;4013;49.744;8.118;2022-08-19T08:51:10;23.80;99.90
7936;DHT22;4013;49.744;8.118;2022-08-19T08:53:38;23.90;99.90
7936;DHT22;4013;49.744;8.118;2022-08-19T08:56:07;24.00;99.90
7936;DHT22;4013;49.744;8.118;2022-08-19T08:58:44;24.10;99.90
7936;DHT22;4013;49.744;8.118;2022-08-19T09:01:13;24.20;99.90
7936;DHT22;4013;49.744;8.118;2022-08-19T09:03:42;24.30;99.90
7936;DHT22;4013;49.744;8.118;2022-08-19T09:06:14;24.30;99.90
7936;DHT22;4013;49.744;8.118;2022-08-19T09:08:49;24.30;99.90
7936;DHT22;4013;49.744;8.118;2022-08-19T09:11:24;24.20;99.90
7936;DHT22;4013;49.744;8.118;2022-08-19T09:14:04;24.30;99.90
7936;DHT22;4013;49.744;8.118;2022-08-19T09:16:34;24.30;99.90
7936;DHT22;4013;49.744;8.118;2022-08-19T09:19:05;24.40;99.90
7936;DHT22;4013;49.744;8.118;2022-08-19T09:21:33;24.40;99.90
7936;DHT22;4013;49.744;8.118;2022-08-19T09:24:01;24.50;99.90
7936;DHT22;4013;49.744;8.118;2022-08-19T09:26:31;24.60;99.90
7936;DHT22;4013;49.744;8.118;2022-08-19T09:28:58;24.50;99.90
7936;DHT22;4013;49.744;8.118;2022-08-19T09:31:28;24.60;99.90
7936;DHT22;4013;49.744;8.118;2022-08-19T09:33:55;24.60;99.90
7936;DHT22;4013;49.744;8.118;2022-08-19T09:36:26;24.70;99.90
7936;DHT22;4013;49.744;8.118;2022-08-19T09:38:55;24.70;99.90
7936;DHT22;4013;49.744;8.118;2022-08-19T09:41:23;24.80;99.90
7936;DHT22;4013;49.744;8.118;2022-08-19T09:43:52;24.80;99.90
7936;DHT22;4013;49.744;8.118;2022-08-19T09:46:21;24.80;99.90
7936;DHT22;4013;49.744;8.118;2022-08-19T09:48:49;24.90;99.90
7936;DHT22;4013;49.744;8.118;2022-08-19T09:51:19;24.90;99.90
7936;DHT22;4013;49.744;8.118;2022-08-19T09:53:48;25.00;99.90
7936;DHT22;4013;49.744;8.118;2022-08-19T09:56:18;25.00;99.90
7936;DHT22;4013;49.744;8.118;2022-08-19T09:58:45;25.00;99.90
7936;DHT22;4013;49.744;8.118;2022-08-19T10:01:17;25.00;99.90
7936;DHT22;4013;49.744;8.118;2022-08-19T10:03:47;25.00;99.90
7936;DHT22;4013;49.744;8.118;2022-08-19T10:06:15;25.00;99.90
7936;DHT22;4013;49.744;8.118;2022-08-19T10:08:42;25.00;99.90
7936;DHT22;4013;49.744;8.118;2022-08-19T10:11:11;25.00;99.90
7936;DHT22;4013;49.744;8.118;2022-08-19T10:13:40;25.10;99.90
7936;DHT22;4013;49.744;8.118;2022-08-19T10:16:09;25.20;99.90
7936;DHT22;4013;49.744;8.118;2022-08-19T10:18:37;25.30;99.90
7936;DHT22;4013;49.744;8.118;2022-08-19T10:21:07;25.40;99.90
7936;DHT22;4013;49.744;8.118;2022-08-19T10:23:35;25.50;99.90
7936;DHT22;4013;49.744;8.118;2022-08-19T10:26:03;25.60;99.90
7936;DHT22;4013;49.744;8.118;2022-08-19T10:28:33;25.70;99.90
7936;DHT22;4013;49.744;8.118;2022-08-19T10:31:06;25.70;99.90
7936;DHT22;4013;49.744;8.118;2022-08-19T10:33:34;25.80;99.90
7936;DHT22;4013;49.744;8.118;2022-08-19T10:36:02;25.70;99.90
7936;DHT22;4013;49.744;8.118;2022-08-19T10:38:30;25.90;99.90
7936;DHT22;4013;49.744;8.118;2022-08-19T10:40:57;25.80;99.90
7936;DHT22;4013;49.744;8.118;2022-08-19T10:43:24;25.70;99.90
7936;DHT22;4013;49.744;8.118;2022-08-19T10:45:55;25.70;99.90
7936;DHT22;4013;49.744;8.118;2022-08-19T10:48:24;25.80;99.90
7936;DHT22;4013;49.744;8.118;2022-08-19T10:50:51;25.90;99.90
7936;DHT22;4013;49.744;8.118;2022-08-19T10:53:35;25.90;99.90
7936;DHT22;4013;49.744;8.118;2022-08-19T10:56:03;25.90;99.90
7936;DHT22;4013;49.744;8.118;2022-08-19T10:58:47;25.90;99.90
7936;DHT22;4013;49.744;8.118;2022-08-19T11:01:15;25.90;99.90
7936;DHT22;4013;49.744;8.118;2022-08-19T11:03:42;26.00;99.90
7936;DHT22;4013;49.744;8.118;2022-08-19T11:06:11;26.00;99.90
7936;DHT22;4013;49.744;8.118;2022-08-19T11:08:38;26.10;99.90
7936;DHT22;4013;49.744;8.118;2022-08-19T11:11:07;26.20;99.90
7936;DHT22;4013;49.744;8.118;2022-08-19T11:13:37;26.30;99.90
7936;DHT22;4013;49.744;8.118;2022-08-19T11:16:08;26.40;99.90
7936;DHT22;4013;49.744;8.118;2022-08-19T11:18:39;26.30;99.90
7936;DHT22;4013;49.744;8.118;2022-08-19T11:21:11;26.50;99.90
7936;DHT22;4013;49.744;8.118;2022-08-19T11:23:38;26.50;99.90
7936;DHT22;4013;49.744;8.118;2022-08-19T11:26:06;26.60;99.90
7936;DHT22;4013;49.744;8.118;2022-08-19T11:28:33;26.60;99.90
7936;DHT22;4013;49.744;8.118;2022-08-19T11:31:00;26.50;99.90
7936;DHT22;4013;49.744;8.118;2022-08-19T11:33:29;26.60;99.90
7936;DHT22;4013;49.744;8.118;2022-08-19T11:35:58;26.80;99.90
7936;DHT22;4013;49.744;8.118;2022-08-19T11:38:26;26.80;99.50
7936;DHT22;4013;49.744;8.118;2022-08-19T11:40:57;27.00;99.00
7936;DHT22;4013;49.744;8.118;2022-08-19T11:43:24;27.10;99.70
7936;DHT22;4013;49.744;8.118;2022-08-19T11:45:52;27.10;95.70
7936;DHT22;4013;49.744;8.118;2022-08-19T11:48:19;27.10;96.90
7936;DHT22;4013;49.744;8.118;2022-08-19T11:50:48;27.10;97.00
7936;DHT22;4013;49.744;8.118;2022-08-19T11:53:16;27.10;96.10
7936;DHT22;4013;49.744;8.118;2022-08-19T11:55:44;27.10;96.70
7936;DHT22;4013;49.744;8.118;2022-08-19T11:58:11;27.10;97.30
7936;DHT22;4013;49.744;8.118;2022-08-19T12:00:39;27.10;98.20
7936;DHT22;4013;49.744;8.118;2022-08-19T12:03:07;27.10;97.90
7936;DHT22;4013;49.744;8.118;2022-08-19T12:05:36;27.10;97.90
7936;DHT22;4013;49.744;8.118;2022-08-19T12:08:04;27.10;97.80
7936;DHT22;4013;49.744;8.118;2022-08-19T12:10:32;27.20;97.20
7936;DHT22;4013;49.744;8.118;2022-08-19T12:13:00;27.20;97.40
7936;DHT22;4013;49.744;8.118;2022-08-19T12:15:27;27.20;98.40
7936;DHT22;4013;49.744;8.118;2022-08-19T12:17:54;27.40;98.00
7936;DHT22;4013;49.744;8.118;2022-08-19T12:20:22;27.30;97.80
7936;DHT22;4013;49.744;8.118;2022-08-19T12:22:50;27.40;98.70
7936;DHT22;4013;49.744;8.118;2022-08-19T12:25:17;27.40;98.10
7936;DHT22;4013;49.744;8.118;2022-08-19T12:27:45;27.40;98.00
7936;DHT22;4013;49.744;8.118;2022-08-19T12:30:13;27.40;97.90
7936;DHT22;4013;49.744;8.118;2022-08-19T12:32:40;27.40;97.40
7936;DHT22;4013;49.744;8.118;2022-08-19T12:35:08;27.50;97.20
7936;DHT22;4013;49.744;8.118;2022-08-19T12:37:37;27.50;95.60
7936;DHT22;4013;49.744;8.118;2022-08-19T12:40:05;27.70;95.90
7936;DHT22;4013;49.744;8.118;2022-08-19T12:42:32;27.80;94.60
7936;DHT22;4013;49.744;8.118;2022-08-19T12:45:00;27.80;95.00
7936;DHT22;4013;49.744;8.118;2022-08-19T12:47:27;27.70;94.60
7936;DHT22;4013;49.744;8.118;2022-08-19T12:49:54;27.70;94.70
7936;DHT22;4013;49.744;8.118;2022-08-19T12:52:23;27.70;94.70
7936;DHT22;4013;49.744;8.118;2022-08-19T12:54:50;27.70;93.20
7936;DHT22;4013;49.744;8.118;2022-08-19T12:57:18;27.80;93.70
7936;DHT22;4013;49.744;8.118;2022-08-19T12:59:44;27.90;93.20
7936;DHT22;4013;49.744;8.118;2022-08-19T13:02:13;27.80;92.50
7936;DHT22;4013;49.744;8.118;2022-08-19T13:04:40;27.80;92.50
7936;DHT22;4013;49.744;8.118;2022-08-19T13:07:07;27.80;94.00
7936;DHT22;4013;49.744;8.118;2022-08-19T13:09:34;28.20;92.20
7936;DHT22;4013;49.744;8.118;2022-08-19T13:12:02;29.00;88.80
7936;DHT22;4013;49.744;8.118;2022-08-19T13:14:33;29.50;85.70
7936;DHT22;4013;49.744;8.118;2022-08-19T13:17:00;29.40;88.60
7936;DHT22;4013;49.744;8.118;2022-08-19T13:19:28;29.30;89.60
7936;DHT22;4013;49.744;8.118;2022-08-19T13:21:56;29.00;88.80
7936;DHT22;4013;49.744;8.118;2022-08-19T13:24:24;28.70;87.70
7936;DHT22;4013;49.744;8.118;2022-08-19T13:26:51;28.20;89.60
7936;DHT22;4013;49.744;8.118;2022-08-19T13:29:18;28.00;89.00
7936;DHT22;4013;49.744;8.118;2022-08-19T13:32:02;28.00;90.80
7936;DHT22;4013;49.744;8.118;2022-08-19T13:34:48;28.00;90.60
7936;DHT22;4013;49.744;8.118;2022-08-19T13:37:15;27.80;90.70
7936;DHT22;4013;49.744;8.118;2022-08-19T13:40:02;27.90;91.00
7936;DHT22;4013;49.744;8.118;2022-08-19T13:42:29;28.00;90.40
7936;DHT22;4013;49.744;8.118;2022-08-19T13:44:57;28.20;90.60
7936;DHT22;4013;49.744;8.118;2022-08-19T13:47:24;28.30;90.80
7936;DHT22;4013;49.744;8.118;2022-08-19T13:49:52;28.50;88.10
7936;DHT22;4013;49.744;8.118;2022-08-19T13:52:19;28.40;86.30
7936;DHT22;4013;49.744;8.118;2022-08-19T13:54:46;28.40;90.50
7936;DHT22;4013;49.744;8.118;2022-08-19T13:57:14;28.40;87.50
7936;DHT22;4013;49.744;8.118;2022-08-19T13:59:41;28.60;88.30
7936;DHT22;4013;49.744;8.118;2022-08-19T14:02:07;28.80;88.10
7936;DHT22;4013;49.744;8.118;2022-08-19T14:04:36;29.00;87.40
7936;DHT22;4013;49.744;8.118;2022-08-19T14:07:05;29.10;85.50
7936;DHT22;4013;49.744;8.118;2022-08-19T14:09:32;29.20;82.40
7936;DHT22;4013;49.744;8.118;2022-08-19T14:11:59;29.10;84.90
7936;DHT22;4013;49.744;8.118;2022-08-19T14:14:25;29.00;83.30
7936;DHT22;4013;49.744;8.118;2022-08-19T14:16:53;29.00;82.60
7936;DHT22;4013;49.744;8.118;2022-08-19T14:19:19;29.20;79.40
7936;DHT22;4013;49.744;8.118;2022-08-19T14:21:46;29.00;78.80
7936;DHT22;4013;49.744;8.118;2022-08-19T14:24:15;29.00;79.20
7936;DHT22;4013;49.744;8.118;2022-08-19T14:26:42;28.80;77.20
7936;DHT22;4013;49.744;8.118;2022-08-19T14:29:08;28.70;79.50
7936;DHT22;4013;49.744;8.118;2022-08-19T14:31:35;28.40;81.00
7936;DHT22;4013;49.744;8.118;2022-08-19T14:34:02;28.40;81.10
7936;DHT22;4013;49.744;8.118;2022-08-19T14:36:29;28.40;82.00
7936;DHT22;4013;49.744;8.118;2022-08-19T14:38:57;28.40;80.70
7936;DHT22;4013;49.744;8.118;2022-08-19T14:41:27;28.40;82.00
7936;DHT22;4013;49.744;8.118;2022-08-19T14:43:56;28.50;82.50
7936;DHT22;4013;49.744;8.118;2022-08-19T14:46:24;28.60;82.50
7936;DHT22;4013;49.744;8.118;2022-08-19T14:48:52;28.40;83.00
7936;DHT22;4013;49.744;8.118;2022-08-19T14:51:21;28.40;85.10
7936;DHT22;4013;49.744;8.118;2022-08-19T14:53:49;28.20;85.30
7936;DHT22;4013;49.744;8.118;2022-08-19T14:56:18;28.00;85.50
7936;DHT22;4013;49.744;8.118;2022-08-19T14:58:47;27.80;85.90
7936;DHT22;4013;49.744;8.118;2022-08-19T15:01:17;27.80;85.50
7936;DHT22;4013;49.744;8.118;2022-08-19T15:03:45;27.80;86.70
7936;DHT22;4013;49.744;8.118;2022-08-19T15:06:12;27.80;86.50
7936;DHT22;4013;49.744;8.118;2022-08-19T15:08:40;27.80;89.90
7936;DHT22;4013;49.744;8.118;2022-08-19T15:11:09;27.90;88.10
7936;DHT22;4013;49.744;8.118;2022-08-19T15:13:36;28.10;88.00
7936;DHT22;4013;49.744;8.118;2022-08-19T15:16:06;28.10;88.00
7936;DHT22;4013;49.744;8.118;2022-08-19T15:18:33;28.00;87.50
7936;DHT22;4013;49.744;8.118;2022-08-19T15:21:00;28.00;89.10
7936;DHT22;4013;49.744;8.118;2022-08-19T15:23:28;28.00;88.40
7936;DHT22;4013;49.744;8.118;2022-08-19T15:25:55;28.00;90.10
7936;DHT22;4013;49.744;8.118;2022-08-19T15:28:22;27.80;89.30
7936;DHT22;4013;49.744;8.118;2022-08-19T15:30:49;27.80;90.90
7936;DHT22;4013;49.744;8.118;2022-08-19T15:33:18;27.80;91.00
7936;DHT22;4013;49.744;8.118;2022-08-19T15:35:47;27.90;90.90
7936;DHT22;4013;49.744;8.118;2022-08-19T15:38:15;28.00;91.10
7936;DHT22;4013;49.744;8.118;2022-08-19T15:40:44;28.00;91.40
7936;DHT22;4013;49.744;8.118;2022-08-19T15:43:13;27.90;91.70
7936;DHT22;4013;49.744;8.118;2022-08-19T15:45:40;27.80;91.60
7936;DHT22;4013;49.744;8.118;2022-08-19T15:48:09;27.80;92.10
7936;DHT22;4013;49.744;8.118;2022-08-19T15:50:38;27.80;92.90
7936;DHT22;4013;49.744;8.118;2022-08-19T15:53:08;27.90;92.20
7936;DHT22;4013;49.744;8.118;2022-08-19T15:55:37;28.00;91.80
7936;DHT22;4013;49.744;8.118;2022-08-19T15:58:09;28.10;90.80
7936;DHT22;4013;49.744;8.118;2022-08-19T16:00:55;28.10;91.30
7936;DHT22;4013;49.744;8.118;2022-08-19T16:03:39;28.10;92.20
7936;DHT22;4013;49.744;8.118;2022-08-19T16:06:25;28.00;91.50
7936;DHT22;4013;49.744;8.118;2022-08-19T16:08:52;27.90;90.90
7936;DHT22;4013;49.744;8.118;2022-08-19T16:11:21;28.00;91.50
7936;DHT22;4013;49.744;8.118;2022-08-19T16:13:49;27.90;90.90